Time;durP1;ratioP1;P1;durP2;ratioP2;P2;SDS_P1;SDS_P2;PMS_P1;PMS_P2;Temp;Humidity;BMP_temperature;BMP_pressure;BME280_temperature;BME280_humidity;BME280_pressure;Samples;Min_cycle;Max_cycle;Signal;HPM_P1;HPM_P2
2023/12/31 00:01:45;;;;;;;5.15;1.33;;;;;;;;;;4985078;28;97468;-79
2023/12/31 00:04:12;;;;;;;5.90;1.10;;;;;;;;;;4975988;28;100262;-79
2023/12/31 00:06:39;;;;;;;4.70;1.05;;;;;;;;;;4978753;28;98795;-79
2023/12/31 00:09:05;;;;;;;4.32;1.23;;;;;;;;;;4978420;28;98836;-79
2023/12/31 00:11:33;;;;;;;7.25;1.30;;;;;;;;;;4997625;28;99525;-80
2023/12/31 00:14:00;;;;;;;4.38;1.08;;;;;;;;;;5006012;27;99529;-81
2023/12/31 00:16:26;;;;;;;5.07;1.10;;;;;;;;;;5014499;27;98533;-81
2023/12/31 00:18:53;;;;;;;3.92;1.08;;;;;;;;;;5013327;28;100915;-81
2023/12/31 00:21:20;;;;;;;5.32;1.20;;;;;;;;;;4996839;28;98214;-80
2023/12/31 00:23:46;;;;;;;4.47;1.20;;;;;;;;;;4998486;28;98474;-82
2023/12/31 00:26:13;;;;;;;3.00;1.27;;;;;;;;;;5026448;27;105105;-80
2023/12/31 00:28:41;;;;;;;5.90;1.30;;;;;;;;;;4996524;28;98215;-81
2023/12/31 00:31:07;;;;;;;3.13;1.10;;;;;;;;;;5002797;28;100660;-80
2023/12/31 00:33:34;;;;;;;3.90;1.10;;;;;;;;;;5017409;28;99534;-79
2023/12/31 00:36:01;;;;;;;3.55;1.00;;;;;;;;;;5021342;28;98319;-80
2023/12/31 00:38:27;;;;;;;2.88;1.10;;;;;;;;;;5015661;27;99433;-80
2023/12/31 00:40:54;;;;;;;3.72;1.23;;;;;;;;;;5016938;28;98209;-80
2023/12/31 00:43:20;;;;;;;2.95;1.00;;;;;;;;;;5018049;27;98360;-80
2023/12/31 00:45:47;;;;;;;4.35;1.20;;;;;;;;;;5015721;28;101282;-80
2023/12/31 00:48:14;;;;;;;4.45;0.90;;;;;;;;;;5016367;27;98428;-79
2023/12/31 00:50:40;;;;;;;2.58;1.10;;;;;;;;;;5013994;28;98551;-80
2023/12/31 00:53:08;;;;;;;4.60;1.20;;;;;;;;;;4994595;28;99998;-80
2023/12/31 00:55:38;;;;;;;3.88;1.10;;;;;;;;;;5025179;28;98394;-80
2023/12/31 00:58:07;;;;;;;2.92;0.90;;;;;;;;;;4986345;28;101099;-80
2023/12/31 01:00:34;;;;;;;4.75;1.00;;;;;;;;;;5014125;28;98376;-80
2023/12/31 01:03:00;;;;;;;3.45;1.10;;;;;;;;;;5000057;28;100910;-80
2023/12/31 01:05:27;;;;;;;5.13;1.30;;;;;;;;;;5007308;28;98855;-80
2023/12/31 01:07:54;;;;;;;2.85;0.98;;;;;;;;;;5001686;28;98476;-81
2023/12/31 01:10:21;;;;;;;2.10;1.00;;;;;;;;;;4979189;28;101410;-81
2023/12/31 01:12:47;;;;;;;2.38;0.90;;;;;;;;;;5014474;28;101707;-80
2023/12/31 01:15:14;;;;;;;2.28;0.82;;;;;;;;;;5007925;28;97446;-80
2023/12/31 01:17:41;;;;;;;3.63;1.10;;;;;;;;;;5019151;28;100088;-81
2023/12/31 01:20:08;;;;;;;5.60;1.00;;;;;;;;;;5016185;27;98096;-78
2023/12/31 01:22:35;;;;;;;;;;;;;;;;;;5013943;28;105500;-80
2023/12/31 01:25:01;;;;;;;3.78;0.90;;;;;;;;;;5010018;28;111662;-80
2023/12/31 01:27:28;;;;;;;4.78;0.95;;;;;;;;;;4996609;28;98411;-80
2023/12/31 01:29:54;;;;;;;1.25;0.85;;;;;;;;;;5026273;28;101077;-80
2023/12/31 01:32:21;;;;;;;3.33;1.10;;;;;;;;;;4992297;28;100564;-81
2023/12/31 01:34:48;;;;;;;4.57;1.13;;;;;;;;;;4981046;28;98430;-81
2023/12/31 01:37:15;;;;;;;2.53;0.90;;;;;;;;;;4996287;28;98830;-80
2023/12/31 01:39:41;;;;;;;4.50;1.08;;;;;;;;;;4998208;28;98058;-82
2023/12/31 01:42:08;;;;;;;6.88;1.08;;;;;;;;;;4995267;28;98377;-82
2023/12/31 01:44:34;;;;;;;2.50;0.90;;;;;;;;;;4994747;28;103541;-82
2023/12/31 01:47:02;;;;;;;;;;;;;;;;;;4994478;28;98969;-82
2023/12/31 01:49:30;;;;;;;2.75;0.90;;;;;;;;;;4996505;28;101849;-80
2023/12/31 01:51:57;;;;;;;3.45;0.93;;;;;;;;;;4994045;28;101302;-80
2023/12/31 01:54:24;;;;;;;2.83;0.95;;;;;;;;;;4977799;28;98678;-80
2023/12/31 01:56:51;;;;;;;3.00;0.90;;;;;;;;;;4996162;28;98548;-81
2023/12/31 01:59:19;;;;;;;2.50;1.00;;;;;;;;;;4977699;28;101519;-81
2023/12/31 02:01:45;;;;;;;;;;;;;;;;;;4982434;28;98624;-80
2023/12/31 02:04:12;;;;;;;3.75;1.50;;;;;;;;;;4975716;28;111389;-82
2023/12/31 02:06:39;;;;;;;3.75;1.20;;;;;;;;;;4995748;28;98589;-82
2023/12/31 02:09:06;;;;;;;4.43;1.40;;;;;;;;;;4980231;28;98876;-82
2023/12/31 02:11:34;;;;;;;3.88;1.30;;;;;;;;;;4994224;28;99881;-81
2023/12/31 02:14:01;;;;;;;2.53;1.10;;;;;;;;;;4979693;28;98224;-82
2023/12/31 02:16:27;;;;;;;1.98;1.17;;;;;;;;;;4979104;28;99365;-82
2023/12/31 02:18:54;;;;;;;3.63;1.45;;;;;;;;;;4993638;28;101365;-82
2023/12/31 02:21:21;;;;;;;3.42;1.10;;;;;;;;;;4997732;28;98397;-81
2023/12/31 02:23:48;;;;;;;2.63;1.27;;;;;;;;;;5001786;28;98883;-82
2023/12/31 02:26:15;;;;;;;6.35;2.03;;;;;;;;;;4998314;28;98578;-82
2023/12/31 02:28:41;;;;;;;5.25;1.70;;;;;;;;;;5000207;28;98391;-83
2023/12/31 02:31:08;;;;;;;4.30;1.40;;;;;;;;;;5000038;28;98930;-81
2023/12/31 02:33:35;;;;;;;4.32;1.48;;;;;;;;;;4982742;28;98545;-82
2023/12/31 02:36:02;;;;;;;4.60;1.30;;;;;;;;;;4998005;28;101113;-83
2023/12/31 02:38:29;;;;;;;2.97;1.20;;;;;;;;;;4978051;28;101543;-82
2023/12/31 02:40:55;;;;;;;2.70;1.20;;;;;;;;;;4996194;28;98428;-81
2023/12/31 02:43:22;;;;;;;3.05;1.20;;;;;;;;;;4999507;28;98481;-82
2023/12/31 02:45:49;;;;;;;4.97;1.42;;;;;;;;;;4997799;28;100793;-82
2023/12/31 02:48:15;;;;;;;2.55;1.10;;;;;;;;;;4994285;28;100729;-83
2023/12/31 02:50:42;;;;;;;3.08;1.17;;;;;;;;;;4982509;28;101330;-83
2023/12/31 02:53:09;;;;;;;5.82;1.23;;;;;;;;;;4983557;28;97658;-83
2023/12/31 02:55:36;;;;;;;;;;;;;;;;;;4999399;28;100515;-82
2023/12/31 02:58:03;;;;;;;9.35;1.63;;;;;;;;;;4999019;28;101180;-84
2023/12/31 03:00:30;;;;;;;9.90;1.60;;;;;;;;;;4996961;28;99072;-82
2023/12/31 03:02:56;;;;;;;6.57;1.45;;;;;;;;;;4981941;28;101881;-82
2023/12/31 03:05:23;;;;;;;7.75;1.50;;;;;;;;;;4999243;28;98757;-82
2023/12/31 03:07:50;;;;;;;4.50;1.15;;;;;;;;;;5003612;28;98478;-81
2023/12/31 03:10:16;;;;;;;4.25;1.05;;;;;;;;;;4998679;28;98878;-82
2023/12/31 03:12:43;;;;;;;3.88;1.10;;;;;;;;;;4998906;28;98341;-82
2023/12/31 03:15:10;;;;;;;3.53;1.20;;;;;;;;;;4987070;28;100668;-82
2023/12/31 03:17:36;;;;;;;6.40;1.10;;;;;;;;;;5006952;28;97996;-82
2023/12/31 03:20:04;;;;;;;4.93;1.23;;;;;;;;;;4998463;28;98425;-83
2023/12/31 03:22:31;;;;;;;4.03;1.10;;;;;;;;;;4998053;28;100887;-82
2023/12/31 03:25:07;;;;;;;3.17;1.00;;;;;;;;;;4997731;28;101933;-81
2023/12/31 03:27:34;;;;;;;3.00;1.00;;;;;;;;;;5001218;28;98861;-81
2023/12/31 03:30:01;;;;;;;3.38;1.23;;;;;;;;;;4996501;28;101309;-82
2023/12/31 03:32:27;;;;;;;2.53;0.90;;;;;;;;;;5034243;27;98379;-83
2023/12/31 03:34:54;;;;;;;4.35;1.02;;;;;;;;;;5014069;27;98498;-83
2023/12/31 03:37:21;;;;;;;5.32;1.13;;;;;;;;;;5010265;28;98780;-83
2023/12/31 03:39:47;;;;;;;4.10;1.20;;;;;;;;;;4992911;28;98265;-82
2023/12/31 03:42:14;;;;;;;2.85;1.20;;;;;;;;;;4982324;28;101326;-82
2023/12/31 03:44:40;;;;;;;3.75;1.10;;;;;;;;;;4976699;28;101286;-82
2023/12/31 03:47:07;;;;;;;2.97;1.13;;;;;;;;;;5004478;28;98506;-80
2023/12/31 03:49:34;;;;;;;2.63;1.10;;;;;;;;;;5020914;27;99207;-82
2023/12/31 03:52:00;;;;;;;2.33;1.00;;;;;;;;;;5016983;28;98377;-82
2023/12/31 03:54:27;;;;;;;1.65;0.82;;;;;;;;;;5015485;27;101257;-81
2023/12/31 03:56:53;;;;;;;2.65;1.00;;;;;;;;;;4987383;28;101875;-80
2023/12/31 03:59:20;;;;;;;2.60;1.02;;;;;;;;;;4997545;28;98539;-81
2023/12/31 04:01:47;;;;;;;2.08;0.90;;;;;;;;;;4998300;28;98477;-81
2023/12/31 04:04:15;;;;;;;1.73;1.10;;;;;;;;;;4995565;28;99089;-81
2023/12/31 04:06:42;;;;;;;2.67;1.13;;;;;;;;;;4997192;28;97715;-81
2023/12/31 04:09:11;;;;;;;2.03;1.00;;;;;;;;;;4980015;28;99551;-81
2023/12/31 04:11:38;;;;;;;2.65;1.02;;;;;;;;;;5004703;28;98768;-82
2023/12/31 04:14:04;;;;;;;5.22;1.00;;;;;;;;;;4979031;28;100692;-82
2023/12/31 04:16:31;;;;;;;2.40;1.00;;;;;;;;;;5000037;28;99100;-81
2023/12/31 04:18:58;;;;;;;3.08;0.95;;;;;;;;;;5011705;28;98154;-83
2023/12/31 04:21:24;;;;;;;2.95;1.10;;;;;;;;;;5009654;28;98431;-82
2023/12/31 04:23:51;;;;;;;1.75;0.90;;;;;;;;;;5006003;28;101405;-82
2023/12/31 04:26:18;;;;;;;3.55;1.00;;;;;;;;;;5016818;27;98669;-83
2023/12/31 04:28:44;;;;;;;2.72;0.90;;;;;;;;;;5034834;27;99072;-82
2023/12/31 04:31:11;;;;;;;3.28;1.00;;;;;;;;;;5014008;28;100626;-82
2023/12/31 04:33:38;;;;;;;2.92;1.10;;;;;;;;;;5028336;28;98336;-82
2023/12/31 04:36:05;;;;;;;2.45;0.80;;;;;;;;;;5000278;28;98983;-81
2023/12/31 04:38:32;;;;;;;;;;;;;;;;;;4983628;28;99198;-81
2023/12/31 04:40:58;;;;;;;1.05;0.80;;;;;;;;;;5006592;28;99466;-82
2023/12/31 04:43:25;;;;;;;1.75;0.90;;;;;;;;;;5009562;28;101247;-81
2023/12/31 04:45:52;;;;;;;2.15;1.00;;;;;;;;;;5011185;28;98153;-81
2023/12/31 04:48:19;;;;;;;2.42;1.08;;;;;;;;;;4998881;28;99397;-81
2023/12/31 04:50:46;;;;;;;1.80;1.00;;;;;;;;;;4995511;28;100279;-81
2023/12/31 04:53:12;;;;;;;1.88;1.08;;;;;;;;;;4996017;28;98214;-82
2023/12/31 04:55:39;;;;;;;2.03;0.90;;;;;;;;;;4999547;28;98789;-82
2023/12/31 04:58:05;;;;;;;2.60;0.95;;;;;;;;;;4996191;28;98399;-81
2023/12/31 05:00:32;;;;;;;2.58;1.00;;;;;;;;;;4995136;28;98548;-82
2023/12/31 05:02:59;;;;;;;1.83;0.93;;;;;;;;;;4978454;28;101988;-82
2023/12/31 05:05:26;;;;;;;1.27;0.80;;;;;;;;;;4979318;28;98124;-81
2023/12/31 05:07:52;;;;;;;2.38;1.10;;;;;;;;;;4995417;28;98416;-82
2023/12/31 05:10:20;;;;;;;4.72;1.08;;;;;;;;;;5013587;27;99620;-81
2023/12/31 05:12:46;;;;;;;;;;;;;;;;;;4996230;28;98540;-81
2023/12/31 05:15:13;;;;;;;2.97;1.08;;;;;;;;;;5001509;28;98222;-80
2023/12/31 05:17:39;;;;;;;2.35;1.00;;;;;;;;;;5025516;28;98890;-81
2023/12/31 05:20:07;;;;;;;2.40;0.98;;;;;;;;;;5000106;28;99160;-81
2023/12/31 05:22:34;;;;;;;2.20;0.90;;;;;;;;;;5011344;28;105445;-82
2023/12/31 05:25:01;;;;;;;2.85;0.82;;;;;;;;;;4983602;28;98483;-82
2023/12/31 05:27:27;;;;;;;2.85;0.90;;;;;;;;;;4995544;28;99515;-81
2023/12/31 05:29:54;;;;;;;2.55;1.00;;;;;;;;;;5010111;28;101509;-81
2023/12/31 05:32:20;;;;;;;1.23;0.80;;;;;;;;;;5014988;27;98106;-82
2023/12/31 05:34:47;;;;;;;3.75;1.00;;;;;;;;;;4997081;28;98439;-81
2023/12/31 05:37:13;;;;;;;2.65;1.00;;;;;;;;;;4999115;28;100363;-82
2023/12/31 05:39:40;;;;;;;3.38;1.08;;;;;;;;;;4991996;28;99187;-82
2023/12/31 05:42:07;;;;;;;2.40;1.00;;;;;;;;;;5015320;28;101251;-81
2023/12/31 05:44:33;;;;;;;1.88;1.02;;;;;;;;;;5006833;28;98630;-82
2023/12/31 05:47:00;;;;;;;2.05;1.00;;;;;;;;;;5012562;28;98157;-82
2023/12/31 05:49:26;;;;;;;3.35;1.02;;;;;;;;;;5000023;28;99141;-82
2023/12/31 05:51:53;;;;;;;3.33;1.00;;;;;;;;;;4998771;28;99192;-81
2023/12/31 05:54:20;;;;;;;1.85;1.00;;;;;;;;;;4999199;28;99765;-82
2023/12/31 05:56:46;;;;;;;1.95;1.20;;;;;;;;;;4983734;28;101773;-81
2023/12/31 05:59:13;;;;;;;2.40;1.10;;;;;;;;;;5011860;28;98428;-81
2023/12/31 06:01:39;;;;;;;1.27;0.90;;;;;;;;;;5001767;28;101154;-81
2023/12/31 06:04:06;;;;;;;2.72;0.93;;;;;;;;;;5001380;28;98653;-82
2023/12/31 06:06:34;;;;;;;2.63;1.17;;;;;;;;;;5002738;27;98486;-82
2023/12/31 06:09:00;;;;;;;2.47;1.00;;;;;;;;;;5011358;28;100554;-81
2023/12/31 06:11:27;;;;;;;2.28;1.10;;;;;;;;;;4992437;28;98161;-82
2023/12/31 06:13:54;;;;;;;2.05;0.90;;;;;;;;;;5005176;28;98708;-82
2023/12/31 06:16:21;;;;;;;2.30;1.10;;;;;;;;;;4995659;28;102394;-81
2023/12/31 06:18:47;;;;;;;;;;;;;;;;;;4982206;28;98840;-82
2023/12/31 06:21:14;;;;;;;3.72;1.02;;;;;;;;;;5003174;28;116234;-82
2023/12/31 06:23:41;;;;;;;2.47;1.20;;;;;;;;;;5002788;28;98380;-82
2023/12/31 06:26:07;;;;;;;2.45;1.10;;;;;;;;;;5001382;28;101399;-81
2023/12/31 06:28:34;;;;;;;2.65;1.00;;;;;;;;;;5014183;28;103043;-81
2023/12/31 06:31:01;;;;;;;1.67;1.02;;;;;;;;;;5005527;28;98274;-82
2023/12/31 06:33:28;;;;;;;2.58;1.08;;;;;;;;;;5002492;28;100890;-82
2023/12/31 06:35:55;;;;;;;5.07;1.30;;;;;;;;;;4998145;28;99819;-83
2023/12/31 06:38:21;;;;;;;3.00;1.13;;;;;;;;;;4992528;28;98154;-83
2023/12/31 06:40:48;;;;;;;3.20;1.40;;;;;;;;;;5010440;27;100970;-83
2023/12/31 06:43:14;;;;;;;3.42;1.20;;;;;;;;;;5027381;28;101749;-83
2023/12/31 06:45:41;;;;;;;1.50;1.10;;;;;;;;;;4997791;28;101348;-82
2023/12/31 06:48:07;;;;;;;2.60;1.20;;;;;;;;;;5000824;28;100213;-82
2023/12/31 06:50:35;;;;;;;3.25;1.30;;;;;;;;;;5014680;28;98642;-81
2023/12/31 06:53:01;;;;;;;;;;;;;;;;;;5007138;28;98725;-82
2023/12/31 06:55:29;;;;;;;2.47;1.23;;;;;;;;;;5008403;28;124646;-83
2023/12/31 06:57:55;;;;;;;2.88;1.30;;;;;;;;;;5014579;28;97430;-83
2023/12/31 07:00:22;;;;;;;2.25;1.10;;;;;;;;;;5032161;27;100571;-83
2023/12/31 07:02:51;;;;;;;3.28;1.40;;;;;;;;;;4977936;28;101322;-82
2023/12/31 07:05:18;;;;;;;2.05;1.30;;;;;;;;;;4996747;28;99355;-82
2023/12/31 07:07:44;;;;;;;2.67;1.15;;;;;;;;;;4985625;28;98734;-82
2023/12/31 07:10:11;;;;;;;4.65;1.25;;;;;;;;;;4995334;28;98398;-81
2023/12/31 07:12:38;;;;;;;3.08;1.30;;;;;;;;;;5000761;28;100944;-82
2023/12/31 07:15:07;;;;;;;3.72;1.23;;;;;;;;;;5011344;28;99604;-82
2023/12/31 07:17:33;;;;;;;3.83;1.33;;;;;;;;;;4997720;28;98974;-82
2023/12/31 07:20:00;;;;;;;5.65;1.50;;;;;;;;;;4998338;28;99053;-82
2023/12/31 07:22:27;;;;;;;3.17;1.10;;;;;;;;;;4997883;28;100558;-81
2023/12/31 07:24:54;;;;;;;2.13;1.10;;;;;;;;;;5004477;28;98300;-81
2023/12/31 07:27:20;;;;;;;3.42;1.30;;;;;;;;;;4996802;28;101470;-81
2023/12/31 07:29:47;;;;;;;3.25;1.20;;;;;;;;;;4996967;28;99075;-81
2023/12/31 07:32:14;;;;;;;5.80;1.35;;;;;;;;;;5014859;28;99759;-81
2023/12/31 07:34:41;;;;;;;4.43;1.27;;;;;;;;;;4996944;28;99227;-80
2023/12/31 07:37:08;;;;;;;4.82;1.33;;;;;;;;;;4997391;28;98257;-80
2023/12/31 07:39:35;;;;;;;3.38;1.30;;;;;;;;;;4990902;28;98787;-81
2023/12/31 07:42:03;;;;;;;3.72;1.58;;;;;;;;;;4995880;28;98863;-81
2023/12/31 07:44:32;;;;;;;2.75;1.20;;;;;;;;;;4996119;28;98894;-80
2023/12/31 07:46:59;;;;;;;5.32;1.40;;;;;;;;;;4979178;28;100846;-80
2023/12/31 07:49:25;;;;;;;2.42;1.15;;;;;;;;;;5004036;28;98464;-81
2023/12/31 07:51:52;;;;;;;3.10;1.40;;;;;;;;;;4983990;28;98509;-80
2023/12/31 07:54:19;;;;;;;2.22;1.20;;;;;;;;;;4992312;28;99803;-81
2023/12/31 07:56:45;;;;;;;2.35;1.20;;;;;;;;;;5002765;28;98737;-81
2023/12/31 07:59:12;;;;;;;4.00;1.30;;;;;;;;;;5008430;28;98471;-80
2023/12/31 08:01:38;;;;;;;3.80;1.30;;;;;;;;;;4996888;28;98865;-80
2023/12/31 08:04:05;;;;;;;2.28;1.30;;;;;;;;;;5013562;28;98236;-79
2023/12/31 08:06:32;;;;;;;2.95;1.20;;;;;;;;;;5001008;28;98799;-79
2023/12/31 08:08:59;;;;;;;3.38;1.10;;;;;;;;;;5012664;28;101619;-79
2023/12/31 08:11:26;;;;;;;3.08;1.13;;;;;;;;;;5007919;28;98915;-80
2023/12/31 08:13:52;;;;;;;3.17;1.40;;;;;;;;;;5002395;28;99019;-80
2023/12/31 08:16:21;;;;;;;3.25;1.25;;;;;;;;;;4997051;28;98640;-80
2023/12/31 08:18:48;;;;;;;2.97;1.27;;;;;;;;;;4995195;28;100835;-80
2023/12/31 08:21:14;;;;;;;2.88;1.30;;;;;;;;;;4997358;28;99132;-80
2023/12/31 08:23:41;;;;;;;3.25;1.30;;;;;;;;;;4979678;28;98349;-81
2023/12/31 08:26:13;;;;;;;5.28;1.27;;;;;;;;;;4980008;28;101114;-81
2023/12/31 08:28:39;;;;;;;3.00;1.20;;;;;;;;;;5011147;28;101118;-81
2023/12/31 08:31:12;;;;;;;3.35;1.20;;;;;;;;;;5007015;28;98672;-81
2023/12/31 08:33:38;;;;;;;3.08;1.23;;;;;;;;;;5004336;28;98783;-80
2023/12/31 08:36:05;;;;;;;2.35;1.30;;;;;;;;;;5029438;28;97835;-80
2023/12/31 08:38:32;;;;;;;2.20;1.20;;;;;;;;;;4996810;28;98689;-80
2023/12/31 08:40:58;;;;;;;1.98;1.10;;;;;;;;;;5001885;28;98893;-81
2023/12/31 08:43:25;;;;;;;1.80;1.15;;;;;;;;;;5009589;27;99073;-83
2023/12/31 08:45:52;;;;;;;2.20;1.30;;;;;;;;;;5011037;28;99531;-82
2023/12/31 08:48:18;;;;;;;2.42;1.10;;;;;;;;;;5013737;28;106152;-79
2023/12/31 08:50:45;;;;;;;2.63;1.30;;;;;;;;;;5010415;28;99835;-80
2023/12/31 08:53:12;;;;;;;5.60;1.48;;;;;;;;;;4998027;28;100554;-81
2023/12/31 08:55:38;;;;;;;5.05;1.30;;;;;;;;;;4995618;28;105362;-80
2023/12/31 08:58:05;;;;;;;3.10;1.30;;;;;;;;;;5011674;28;99941;-80
2023/12/31 09:00:32;;;;;;;3.75;1.40;;;;;;;;;;5015267;27;100478;-80
2023/12/31 09:02:59;;;;;;;3.90;1.30;;;;;;;;;;5014593;28;104509;-80
2023/12/31 09:05:25;;;;;;;3.35;1.40;;;;;;;;;;5013256;28;98834;-81
2023/12/31 09:07:52;;;;;;;2.65;1.20;;;;;;;;;;5010719;28;99823;-80
2023/12/31 09:10:19;;;;;;;2.78;1.30;;;;;;;;;;4991801;28;98766;-81
2023/12/31 09:12:47;;;;;;;4.38;1.60;;;;;;;;;;4987790;28;98364;-81
2023/12/31 09:15:13;;;;;;;3.53;1.42;;;;;;;;;;5018939;28;105732;-81
2023/12/31 09:17:40;;;;;;;2.88;1.30;;;;;;;;;;5003271;28;100785;-81
2023/12/31 09:20:08;;;;;;;5.35;1.38;;;;;;;;;;4995179;28;100952;-80
2023/12/31 09:22:37;;;;;;;5.90;1.60;;;;;;;;;;4994864;28;98639;-82
2023/12/31 09:25:05;;;;;;;5.78;1.50;;;;;;;;;;5003763;28;100233;-82
2023/12/31 09:27:33;;;;;;;6.15;1.50;;;;;;;;;;5032128;28;99161;-82
2023/12/31 09:30:00;;;;;;;4.15;1.38;;;;;;;;;;5043861;27;98236;-81
2023/12/31 09:32:26;;;;;;;4.10;1.30;;;;;;;;;;5003190;28;100930;-80
2023/12/31 09:34:53;;;;;;;3.85;1.30;;;;;;;;;;4993333;28;101257;-80
2023/12/31 09:37:20;;;;;;;3.05;1.27;;;;;;;;;;4995378;28;99254;-79
2023/12/31 09:39:47;;;;;;;4.18;1.60;;;;;;;;;;4990026;28;98730;-81
2023/12/31 09:42:15;;;;;;;2.90;1.27;;;;;;;;;;4994945;28;105601;-81
2023/12/31 09:44:43;;;;;;;3.03;1.10;;;;;;;;;;4997811;28;100607;-80
2023/12/31 09:47:10;;;;;;;3.47;1.10;;;;;;;;;;5003658;28;99257;-81
2023/12/31 09:49:39;;;;;;;1.23;0.82;;;;;;;;;;5003146;28;98236;-80
2023/12/31 09:52:10;;;;;;;1.98;1.00;;;;;;;;;;4992416;28;98370;-79
2023/12/31 09:54:38;;;;;;;2.72;1.13;;;;;;;;;;4991732;28;103503;-81
2023/12/31 09:57:05;;;;;;;1.52;1.02;;;;;;;;;;4979544;28;99295;-81
2023/12/31 09:59:32;;;;;;;2.15;1.00;;;;;;;;;;4982299;28;101187;-80
2023/12/31 10:01:59;;;;;;;4.78;1.10;;;;;;;;;;4950385;28;98635;-82
2023/12/31 10:04:26;;;;;;;2.10;1.00;;;;;;;;;;4993563;28;101413;-80
2023/12/31 10:06:53;;;;;;;2.13;1.00;;;;;;;;;;4994240;28;100790;-81
2023/12/31 10:09:23;;;;;;;1.27;1.00;;;;;;;;;;4983200;28;98260;-81
2023/12/31 10:11:50;;;;;;;1.70;1.00;;;;;;;;;;4998015;28;98470;-81
2023/12/31 10:14:17;;;;;;;1.30;0.95;;;;;;;;;;4991001;28;100593;-81
2023/12/31 10:16:43;;;;;;;3.78;1.20;;;;;;;;;;4975207;28;105389;-79
2023/12/31 10:19:11;;;;;;;2.58;1.10;;;;;;;;;;4979294;28;98526;-80
2023/12/31 10:21:39;;;;;;;3.25;1.05;;;;;;;;;;4985489;28;99336;-79
2023/12/31 10:24:06;;;;;;;3.47;1.00;;;;;;;;;;4995797;28;99209;-80
2023/12/31 10:26:32;;;;;;;3.42;1.05;;;;;;;;;;4996920;28;98921;-79
2023/12/31 10:28:59;;;;;;;1.52;0.90;;;;;;;;;;5014522;28;99007;-81
2023/12/31 10:31:26;;;;;;;1.60;1.00;;;;;;;;;;5018240;27;98852;-80
2023/12/31 10:33:53;;;;;;;1.45;0.90;;;;;;;;;;5017082;28;101731;-81
2023/12/31 10:36:20;;;;;;;1.13;0.90;;;;;;;;;;5018114;27;98598;-80
2023/12/31 10:38:47;;;;;;;;;;;;;;;;;;5018776;28;98445;-80
2023/12/31 10:41:20;;;;;;;2.85;1.05;;;;;;;;;;5002264;28;123368;-80
2023/12/31 10:43:48;;;;;;;2.75;1.10;;;;;;;;;;5006719;28;98432;-81
2023/12/31 10:46:16;;;;;;;3.00;1.00;;;;;;;;;;5015431;28;99465;-80
2023/12/31 10:48:48;;;;;;;1.98;0.90;;;;;;;;;;5018903;27;98179;-78
2023/12/31 10:51:23;;;;;;;1.80;0.80;;;;;;;;;;5018176;28;101029;-80
2023/12/31 10:53:51;;;;;;;1.83;1.00;;;;;;;;;;5001115;28;100987;-80
2023/12/31 10:56:20;;;;;;;2.60;1.00;;;;;;;;;;5016193;27;98619;-79
2023/12/31 10:58:47;;;;;;;1.73;0.90;;;;;;;;;;5017110;28;101029;-79
2023/12/31 11:01:17;;;;;;;2.90;1.05;;;;;;;;;;5018370;27;99614;-81
2023/12/31 11:03:44;;;;;;;2.65;1.10;;;;;;;;;;5038139;27;97594;-81
2023/12/31 11:06:11;;;;;;;;;;;;;;;;;;5017834;27;100807;-81
2023/12/31 11:08:37;;;;;;;4.28;1.00;;;;;;;;;;5002295;28;98651;-81
2023/12/31 11:11:04;;;;;;;1.50;0.90;;;;;;;;;;5017023;28;101241;-81
2023/12/31 11:13:32;;;;;;;2.90;1.10;;;;;;;;;;5016844;28;101101;-81
2023/12/31 11:16:01;;;;;;;1.42;1.02;;;;;;;;;;5018668;27;101807;-81
2023/12/31 11:18:32;;;;;;;1.23;0.80;;;;;;;;;;5015907;27;98609;-81
2023/12/31 11:21:02;;;;;;;4.80;1.10;;;;;;;;;;5018100;27;99239;-81
2023/12/31 11:23:43;;;;;;;4.20;1.20;;;;;;;;;;5017573;27;98552;-81
2023/12/31 11:26:11;;;;;;;3.05;1.10;;;;;;;;;;5021515;27;98803;-81
2023/12/31 11:28:45;;;;;;;1.38;0.90;;;;;;;;;;5018953;28;97370;-80
2023/12/31 11:31:13;;;;;;;2.60;0.93;;;;;;;;;;5017924;28;100058;-80
2023/12/31 11:33:39;;;;;;;;;;;;;;;;;;5006000;28;101280;-80
2023/12/31 11:36:11;;;;;;;4.57;1.20;;;;;;;;;;4998305;28;99885;-79
2023/12/31 11:38:56;;;;;;;4.38;1.02;;;;;;;;;;5002310;28;103677;-80
2023/12/31 11:41:24;;;;;;;3.63;1.00;;;;;;;;;;5005153;28;98799;-80
2023/12/31 11:43:51;;;;;;;;;;;;;;;;;;5031274;27;98260;-82
2023/12/31 11:46:31;;;;;;;6.72;1.10;;;;;;;;;;5004500;27;100266;-81
2023/12/31 11:48:58;;;;;;;2.97;0.93;;;;;;;;;;5017548;28;98179;-80
2023/12/31 11:51:28;;;;;;;4.70;1.15;;;;;;;;;;5019667;28;98400;-79
2023/12/31 11:53:56;;;;;;;4.05;1.00;;;;;;;;;;5018985;28;98260;-81
2023/12/31 11:56:29;;;;;;;4.30;1.10;;;;;;;;;;4998537;27;98131;-83
2023/12/31 11:58:56;;;;;;;1.98;1.05;;;;;;;;;;4999539;28;98413;-82
2023/12/31 12:01:23;;;;;;;5.20;1.00;;;;;;;;;;5008977;28;99026;-80
2023/12/31 12:03:50;;;;;;;2.33;1.02;;;;;;;;;;5004070;28;98533;-80
2023/12/31 12:06:17;;;;;;;5.97;1.05;;;;;;;;;;4997720;27;99796;-80
2023/12/31 12:08:43;;;;;;;8.82;1.20;;;;;;;;;;5004738;28;99150;-80
2023/12/31 12:11:10;;;;;;;5.97;1.10;;;;;;;;;;5034160;27;101287;-80
2023/12/31 12:13:37;;;;;;;4.47;1.20;;;;;;;;;;5018329;27;98743;-80
2023/12/31 12:16:03;;;;;;;4.72;1.10;;;;;;;;;;5001194;28;98952;-81
2023/12/31 12:18:30;;;;;;;6.70;1.30;;;;;;;;;;5013603;27;100851;-80
2023/12/31 12:20:58;;;;;;;2.92;0.93;;;;;;;;;;5003756;28;101769;-80
2023/12/31 12:23:25;;;;;;;2.95;0.93;;;;;;;;;;5007723;28;98288;-80
2023/12/31 12:25:51;;;;;;;5.35;1.30;;;;;;;;;;5012412;28;98930;-81
2023/12/31 12:28:19;;;;;;;4.25;1.15;;;;;;;;;;4996651;28;101137;-78
2023/12/31 12:30:45;;;;;;;4.13;1.25;;;;;;;;;;4996301;28;98927;-81
2023/12/31 12:33:12;;;;;;;3.30;1.10;;;;;;;;;;5002952;28;98971;-81
2023/12/31 12:35:42;;;;;;;4.85;1.40;;;;;;;;;;5011646;28;98458;-83
2023/12/31 12:38:10;;;;;;;4.32;1.40;;;;;;;;;;5012012;28;101356;-82
2023/12/31 12:40:37;;;;;;;4.90;1.27;;;;;;;;;;4996928;28;99943;-85
2023/12/31 12:43:19;;;;;;;3.97;1.30;;;;;;;;;;4979607;28;98466;-84
2023/12/31 12:46:00;;;;;;;5.85;1.45;;;;;;;;;;4993205;28;98473;-85
2023/12/31 12:48:35;;;;;;;5.95;1.50;;;;;;;;;;4992697;28;101191;-84
2023/12/31 12:51:11;;;;;;;4.85;1.45;;;;;;;;;;5002358;28;100594;-84
2023/12/31 12:53:40;;;;;;;3.78;1.00;;;;;;;;;;5022587;27;99855;-82
2023/12/31 12:56:08;;;;;;;6.90;1.23;;;;;;;;;;4993883;28;98203;-84
2023/12/31 12:58:49;;;;;;;3.95;1.30;;;;;;;;;;5016994;27;102508;-83
2023/12/31 13:01:19;;;;;;;3.10;1.20;;;;;;;;;;4999075;28;98575;-84
2023/12/31 13:03:54;;;;;;;4.25;1.40;;;;;;;;;;5002358;28;98322;-85
2023/12/31 13:06:28;;;;;;;3.55;1.25;;;;;;;;;;5010319;28;100698;-86
2023/12/31 13:08:59;;;;;;;5.72;1.33;;;;;;;;;;4994387;28;100419;-84
2023/12/31 13:11:32;;;;;;;3.85;1.20;;;;;;;;;;5001134;28;98178;-82
2023/12/31 13:14:03;;;;;;;5.97;1.40;;;;;;;;;;5016532;28;98650;-85
2023/12/31 13:16:34;;;;;;;3.42;1.20;;;;;;;;;;5013045;28;103852;-83
2023/12/31 13:19:07;;;;;;;7.30;1.27;;;;;;;;;;4978433;28;101918;-82
2023/12/31 13:21:34;;;;;;;;;;;;;;;;;;5005367;28;99929;-83
2023/12/31 13:24:02;;;;;;;3.55;1.30;;;;;;;;;;4997382;28;98972;-84
2023/12/31 13:26:28;;;;;;;;;;;;;;;;;;4995386;27;101168;-80
2023/12/31 13:28:55;;;;;;;3.20;1.15;;;;;;;;;;5003875;28;98745;-80
2023/12/31 13:31:28;;;;;;;4.03;1.30;;;;;;;;;;5016363;27;98110;-80
2023/12/31 13:33:56;;;;;;;5.20;1.10;;;;;;;;;;5004918;27;98402;-80
2023/12/31 13:36:23;;;;;;;4.43;1.10;;;;;;;;;;4986419;28;99633;-79
2023/12/31 13:38:53;;;;;;;4.50;1.13;;;;;;;;;;4987962;28;98456;-80
2023/12/31 13:41:19;;;;;;;5.20;1.10;;;;;;;;;;5004361;28;99848;-79
2023/12/31 13:43:49;;;;;;;3.95;1.10;;;;;;;;;;5000680;28;98355;-81
2023/12/31 13:46:16;;;;;;;3.35;1.10;;;;;;;;;;4978743;28;98718;-80
2023/12/31 13:48:43;;;;;;;3.95;1.00;;;;;;;;;;4993637;28;100929;-81
2023/12/31 13:51:10;;;;;;;3.20;1.15;;;;;;;;;;4996069;28;98240;-81
2023/12/31 13:53:37;;;;;;;4.88;1.27;;;;;;;;;;5008125;28;98389;-79
2023/12/31 13:56:04;;;;;;;4.95;1.20;;;;;;;;;;4999535;28;99339;-82
2023/12/31 13:58:30;;;;;;;11.43;1.92;;;;;;;;;;5002948;28;97376;-84
2023/12/31 14:00:57;;;;;;;5.35;1.38;;;;;;;;;;5002502;28;98859;-84
2023/12/31 14:03:32;;;;;;;6.72;1.80;;;;;;;;;;4983020;28;98486;-85
2023/12/31 14:06:10;;;;;;;;;;;;;;;;;;4979572;28;99305;-85
2023/12/31 14:08:39;;;;;;;5.32;1.40;;;;;;;;;;5017559;28;102273;-83
2023/12/31 14:11:08;;;;;;;5.20;1.40;;;;;;;;;;5019570;28;98291;-83
2023/12/31 14:13:38;;;;;;;4.80;1.52;;;;;;;;;;5002910;28;100852;-84
2023/12/31 14:16:18;;;;;;;3.58;1.38;;;;;;;;;;5000954;28;101752;-84
2023/12/31 14:18:50;;;;;;;5.57;1.40;;;;;;;;;;5004042;28;98364;-84
2023/12/31 14:21:24;;;;;;;4.53;1.40;;;;;;;;;;5028483;27;98926;-85
2023/12/31 14:27:09;;;;;;;4.55;1.15;;;;;;;;;;5017674;28;101974;-82
2023/12/31 14:29:42;;;;;;;3.75;1.27;;;;;;;;;;5022430;28;102004;-84
2023/12/31 14:32:45;;;;;;;;;;;;;;;;;;;;;
2023/12/31 14:35:34;;;;;;;4.07;1.30;;;;;;;;;;5006036;28;101558;-84
2023/12/31 14:38:08;;;;;;;5.13;1.42;;;;;;;;;;4997433;28;100504;-84
2023/12/31 14:40:45;;;;;;;4.38;1.40;;;;;;;;;;5012705;28;98460;-83
2023/12/31 14:43:21;;;;;;;5.75;1.40;;;;;;;;;;4996338;28;101500;-84
2023/12/31 14:45:57;;;;;;;5.40;1.60;;;;;;;;;;4999582;28;99739;-83
2023/12/31 14:48:54;;;;;;;;;;;;;;;;;;;;;
2023/12/31 14:51:34;;;;;;;;;;;;;;;;;;5013694;28;98638;-83
2023/12/31 14:54:23;;;;;;;5.60;1.48;;;;;;;;;;5007131;28;98226;-83